Time;durP1;ratioP1;P1;durP2;ratioP2;P2;SDS_P1;SDS_P2;PMS_P1;PMS_P2;Temp;Humidity;BMP_temperature;BMP_pressure;BME280_temperature;BME280_humidity;BME280_pressure;Samples;Min_cycle;Max_cycle;Signal;HPM_P1;HPM_P2
2023/09/20 00:02:58;;;;;;;4.70;3.00;;;;;;;12.71;78.87;99949.63;130975;1256;108776;-78
2023/09/20 00:06:09;;;;;;;3.90;3.00;;;;;;;12.71;78.97;99950.42;130956;1256;107697;-78
2023/09/20 00:09:17;;;;;;;5.00;3.50;;;;;;;12.70;78.86;99953.45;130987;1255;108693;-78
2023/09/20 00:12:22;;;;;;;4.00;3.30;;;;;;;12.66;78.97;99954.26;130994;1254;107041;-77
2023/09/20 00:15:30;;;;;;;6.10;4.60;;;;;;;12.63;79.16;99958.02;130962;1256;107725;-77
2023/09/20 00:18:36;;;;;;;4.60;3.80;;;;;;;12.55;79.18;99958.29;130944;1253;106486;-77
2023/09/20 00:21:41;;;;;;;3.50;3.10;;;;;;;12.51;79.25;99955.06;130959;1266;106490;-78
2023/09/20 00:24:47;;;;;;;5.50;3.40;;;;;;;12.50;79.32;99956.40;131091;1254;107915;-78
2023/09/20 00:27:52;;;;;;;7.00;3.10;;;;;;;12.52;79.24;99959.67;130986;1254;106776;-77
2023/09/20 00:30:58;;;;;;;6.80;3.20;;;;;;;12.55;79.20;99959.56;130893;1251;106339;-78
2023/09/20 00:34:03;;;;;;;6.80;3.00;;;;;;;12.56;79.16;99959.75;131055;1254;107615;-77
2023/09/20 00:37:09;;;;;;;4.40;3.20;;;;;;;12.57;79.33;99960.27;131008;1254;108643;-78
2023/09/20 00:40:16;;;;;;;3.90;3.00;;;;;;;12.56;79.32;99960.56;131031;1251;106826;-78
2023/09/20 00:43:27;;;;;;;6.30;3.20;;;;;;;12.54;79.36;99959.90;130976;1254;107958;-77
2023/09/20 00:46:33;;;;;;;4.20;2.90;;;;;;;12.51;79.61;99959.14;130958;1256;107731;-78
2023/09/20 00:49:40;;;;;;;9.40;3.50;;;;;;;12.49;79.47;99960.09;130964;1257;107471;-78
2023/09/20 00:52:51;;;;;;;4.30;3.20;;;;;;;12.47;79.46;99957.95;131208;1250;107869;-77
2023/09/20 00:55:58;;;;;;;4.70;3.60;;;;;;;12.48;79.63;99959.79;131027;1251;107683;-77
2023/09/20 00:59:06;;;;;;;4.40;3.30;;;;;;;12.48;79.64;99957.68;130961;1255;108650;-77
2023/09/20 01:02:14;;;;;;;4.50;3.40;;;;;;;12.47;79.88;99955.84;131021;1251;106312;-77
2023/09/20 01:05:25;;;;;;;4.80;3.20;;;;;;;12.46;79.77;99954.92;130941;1256;107718;-77
2023/09/20 01:08:32;;;;;;;7.00;3.10;;;;;;;12.46;79.77;99956.36;131098;1251;106460;-78
2023/09/20 01:11:43;;;;;;;4.80;3.40;;;;;;;12.43;79.67;99959.70;130981;1255;107614;-79
2023/09/20 01:14:49;;;;;;;;;;;;;;;12.39;79.57;99961.96;131030;1256;106615;-78
2023/09/20 01:17:57;;;;;;;3.10;2.70;;;;;;;12.35;79.45;99961.66;130914;1251;107733;-77
2023/09/20 01:21:03;;;;;;;5.20;3.20;;;;;;;12.35;79.79;99964.55;131066;1253;107121;-77
2023/09/20 01:24:11;;;;;;;4.60;3.40;;;;;;;12.36;80.05;99968.49;131084;1251;108645;-78
2023/09/20 01:27:16;;;;;;;4.90;3.70;;;;;;;12.36;80.06;99965.42;131017;1256;107859;-78
2023/09/20 01:30:24;;;;;;;4.90;3.60;;;;;;;12.35;79.88;99966.48;130958;1254;108617;-77
2023/09/20 01:33:31;;;;;;;5.70;3.60;;;;;;;12.36;80.13;99967.28;130989;1251;107709;-78
2023/09/20 01:36:36;;;;;;;5.80;3.70;;;;;;;12.35;80.22;99966.04;130986;1256;106633;-77
2023/09/20 01:39:42;;;;;;;5.40;3.70;;;;;;;12.35;80.28;99964.17;130839;1259;107679;-77
2023/09/20 01:42:48;;;;;;;5.40;3.80;;;;;;;12.32;80.26;99963.55;130997;1251;106988;-77
2023/09/20 01:45:54;;;;;;;5.00;3.40;;;;;;;12.29;80.29;99961.55;131012;1256;107159;-77
2023/09/20 01:49:00;;;;;;;11.40;4.60;;;;;;;12.29;80.36;99967.81;131042;1256;107760;-77
2023/09/20 01:52:07;;;;;;;6.30;3.80;;;;;;;12.28;80.42;99964.90;131101;1255;106781;-77
2023/09/20 01:55:15;;;;;;;7.10;3.90;;;;;;;12.29;80.34;99962.15;131024;1256;106678;-77
2023/09/20 01:58:20;;;;;;;5.30;4.10;;;;;;;12.29;80.36;99963.59;130763;1251;106645;-77
2023/09/20 02:01:26;;;;;;;5.90;3.60;;;;;;;12.27;80.12;99966.34;130878;1256;105960;-77
2023/09/20 02:04:32;;;;;;;4.60;4.00;;;;;;;12.22;80.27;99964.71;131013;1256;107546;-77
2023/09/20 02:07:38;;;;;;;4.90;3.50;;;;;;;12.19;80.19;99966.13;130998;1256;106518;-77
2023/09/20 02:10:44;;;;;;;7.70;4.60;;;;;;;12.13;80.10;99972.42;130981;1256;108333;-77
2023/09/20 02:13:49;;;;;;;7.60;3.90;;;;;;;12.09;80.22;99974.30;130935;1251;106911;-77
2023/09/20 02:16:55;;;;;;;5.90;3.70;;;;;;;12.09;80.29;99972.61;130828;1251;108381;-77
2023/09/20 02:20:08;;;;;;;5.10;4.10;;;;;;;12.07;80.03;99974.71;130991;1256;107725;-77
2023/09/20 02:23:15;;;;;;;5.80;4.30;;;;;;;12.05;79.99;99977.69;131081;1253;108135;-77
2023/09/20 02:26:22;;;;;;;7.30;4.70;;;;;;;12.01;80.05;99978.80;131277;1253;108497;-78
2023/09/20 02:29:30;;;;;;;5.30;4.20;;;;;;;11.99;79.87;99981.88;131035;1253;109393;-78
2023/09/20 02:32:37;;;;;;;4.20;3.70;;;;;;;11.95;79.92;99983.41;130888;1256;107351;-77
2023/09/20 02:35:42;;;;;;;6.80;4.50;;;;;;;11.88;79.61;99983.39;130966;1256;107519;-77
2023/09/20 02:38:48;;;;;;;6.40;4.40;;;;;;;11.81;79.81;99982.92;131042;1256;106879;-76
2023/09/20 02:41:54;;;;;;;7.80;4.10;;;;;;;11.76;79.52;99980.98;130929;1256;106484;-75
2023/09/20 02:44:59;;;;;;;4.80;3.50;;;;;;;11.72;79.93;99981.92;131414;1251;107896;-74
2023/09/20 02:48:06;;;;;;;4.70;3.70;;;;;;;11.71;79.71;99980.76;131098;1254;106636;-73
2023/09/20 02:51:12;;;;;;;4.30;3.90;;;;;;;11.71;79.67;99980.76;131099;1250;106434;-73
2023/09/20 02:54:18;;;;;;;5.40;4.20;;;;;;;11.71;79.91;99982.86;130871;1256;107765;-74
2023/09/20 02:57:24;;;;;;;6.10;4.10;;;;;;;11.73;79.96;99981.98;131029;1256;106972;-73
2023/09/20 03:00:31;;;;;;;4.70;3.90;;;;;;;11.72;80.01;99980.63;131046;1255;106624;-73
2023/09/20 03:03:37;;;;;;;6.10;4.50;;;;;;;11.70;79.96;99980.23;130904;1250;106401;-73
2023/09/20 03:06:44;;;;;;;5.80;4.00;;;;;;;11.66;79.97;99981.91;130895;1256;107414;-73
2023/09/20 03:09:50;;;;;;;4.30;3.30;;;;;;;11.63;80.08;99982.35;130955;1256;107704;-73
2023/09/20 03:12:57;;;;;;;5.20;4.30;;;;;;;11.63;80.27;99975.58;130990;1254;107669;-73
2023/09/20 03:16:04;;;;;;;4.70;4.20;;;;;;;11.65;80.20;99978.61;130911;1256;106938;-73
2023/09/20 03:19:09;;;;;;;5.10;4.60;;;;;;;11.67;80.24;99978.55;130850;1256;107365;-73
2023/09/20 03:22:17;;;;;;;5.00;4.00;;;;;;;11.68;80.20;99980.09;130984;1254;108673;-73
2023/09/20 03:25:22;;;;;;;8.10;4.70;;;;;;;11.67;80.13;99979.28;131049;1256;107688;-74
2023/09/20 03:28:28;;;;;;;6.10;4.80;;;;;;;11.65;80.24;99980.35;130943;1256;107593;-73
2023/09/20 03:31:35;;;;;;;7.20;4.60;;;;;;;11.64;80.47;99981.59;130960;1256;107780;-73
2023/09/20 03:34:40;;;;;;;8.20;4.50;;;;;;;11.61;80.69;99979.15;131039;1256;107872;-73
2023/09/20 03:37:46;;;;;;;4.80;4.00;;;;;;;11.61;80.42;99981.66;131045;1257;106690;-75
2023/09/20 03:40:53;;;;;;;5.80;4.40;;;;;;;11.62;80.51;99979.42;131018;1255;106815;-74
2023/09/20 03:43:58;;;;;;;9.20;4.80;;;;;;;11.62;80.48;99976.05;130970;1253;107029;-73
2023/09/20 03:47:04;;;;;;;7.90;4.20;;;;;;;11.62;80.52;99974.08;130951;1256;106772;-73
2023/09/20 03:50:12;;;;;;;5.10;4.30;;;;;;;11.62;80.46;99975.50;130934;1256;106870;-73
2023/09/20 03:53:18;;;;;;;5.30;4.50;;;;;;;11.61;80.56;99980.30;131048;1256;107180;-73
2023/09/20 03:56:25;;;;;;;5.40;4.40;;;;;;;11.57;80.69;99975.91;130927;1256;108725;-74
2023/09/20 03:59:33;;;;;;;5.90;4.10;;;;;;;11.54;80.77;99969.79;130981;1256;107612;-74
2023/09/20 04:02:40;;;;;;;6.20;4.00;;;;;;;11.54;80.84;99967.30;130968;1256;107731;-73
2023/09/20 04:05:47;;;;;;;5.40;4.40;;;;;;;11.53;81.02;99966.13;130999;1253;108601;-74
2023/09/20 04:08:55;;;;;;;5.60;4.50;;;;;;;11.55;80.64;99969.58;131081;1251;107023;-75
2023/09/20 04:12:01;;;;;;;5.10;4.20;;;;;;;11.54;80.94;99970.33;130951;1251;107001;-74
2023/09/20 04:15:08;;;;;;;5.90;4.40;;;;;;;11.53;80.76;99967.42;131080;1256;108456;-74
2023/09/20 04:18:15;;;;;;;8.00;4.50;;;;;;;11.50;80.88;99966.51;131000;1256;106576;-73
2023/09/20 04:21:23;;;;;;;6.20;4.40;;;;;;;11.49;80.85;99972.66;131037;1251;106503;-73
2023/09/20 04:24:29;;;;;;;5.30;3.90;;;;;;;11.47;80.83;99973.77;130971;1251;107203;-74
2023/09/20 04:27:34;;;;;;;7.40;4.90;;;;;;;11.45;81.08;99968.88;130963;1256;107767;-74
2023/09/20 04:30:41;;;;;;;7.50;5.20;;;;;;;11.47;81.63;99971.26;130985;1255;105688;-73
2023/09/20 04:33:52;;;;;;;8.00;5.10;;;;;;;11.53;82.05;99971.73;131038;1256;107768;-73
2023/09/20 04:36:59;;;;;;;8.50;4.90;;;;;;;11.57;81.65;99973.27;130954;1256;106902;-75
2023/09/20 04:40:09;;;;;;;6.60;5.00;;;;;;;11.58;81.69;99974.20;131151;1255;107674;-74
2023/09/20 04:43:15;;;;;;;6.90;5.50;;;;;;;11.60;81.90;99980.59;130921;1258;108020;-74
2023/09/20 04:46:23;;;;;;;7.40;5.50;;;;;;;11.63;82.40;99982.92;131067;1265;107568;-75
2023/09/20 04:49:28;;;;;;;6.50;5.50;;;;;;;11.69;82.40;99985.40;130890;1255;107507;-75
2023/09/20 04:52:34;;;;;;;8.20;5.70;;;;;;;11.74;82.15;99989.67;131031;1254;107341;-74
2023/09/20 04:55:41;;;;;;;7.10;5.50;;;;;;;11.79;82.51;99994.48;130995;1256;106657;-73
2023/09/20 04:58:47;;;;;;;8.40;6.30;;;;;;;11.87;82.57;99992.77;130938;1256;107554;-75
2023/09/20 05:01:52;;;;;;;7.40;6.60;;;;;;;11.92;83.04;99990.14;130889;1256;107780;-75
2023/09/20 05:04:58;;;;;;;8.10;6.10;;;;;;;11.97;83.32;99986.88;130950;1256;107844;-75
2023/09/20 05:08:05;;;;;;;8.60;6.80;;;;;;;12.06;83.96;99984.67;130999;1256;107496;-76
2023/09/20 05:11:10;;;;;;;8.20;7.20;;;;;;;12.15;84.08;99982.26;130864;1251;107640;-76
2023/09/20 05:14:17;;;;;;;12.60;7.00;;;;;;;12.23;84.24;99985.08;130979;1251;106712;-76
2023/09/20 05:17:23;;;;;;;8.90;7.40;;;;;;;12.29;84.38;99985.30;131015;1256;106817;-77
2023/09/20 05:20:30;;;;;;;8.30;6.80;;;;;;;12.37;84.77;99985.89;130954;1256;107678;-75
2023/09/20 05:23:36;;;;;;;13.50;7.40;;;;;;;12.45;84.81;99986.95;130999;1250;107624;-74
2023/09/20 05:26:43;;;;;;;8.90;7.10;;;;;;;12.54;85.33;99991.45;131007;1256;108487;-73
2023/09/20 05:29:50;;;;;;;9.70;7.50;;;;;;;12.66;85.68;99989.60;130965;1257;108280;-73
2023/09/20 05:32:56;;;;;;;10.10;8.00;;;;;;;12.78;85.78;99989.35;130964;1255;108672;-73
2023/09/20 05:36:05;;;;;;;12.10;8.10;;;;;;;12.85;86.00;99989.39;130973;1256;108405;-73
2023/09/20 05:39:12;;;;;;;9.10;7.60;;;;;;;12.97;86.12;99988.97;131001;1251;107843;-74
2023/09/20 05:42:18;;;;;;;10.00;7.50;;;;;;;13.11;86.31;99990.56;131007;1251;108403;-74
2023/09/20 05:45:26;;;;;;;9.60;8.00;;;;;;;13.26;86.74;99990.61;131017;1256;107640;-72
2023/09/20 05:48:31;;;;;;;11.50;9.30;;;;;;;13.42;87.11;99993.66;131004;1255;107743;-72
2023/09/20 05:51:37;;;;;;;12.80;9.30;;;;;;;13.55;87.09;99993.36;130959;1254;107917;-75
2023/09/20 05:54:45;;;;;;;9.70;8.40;;;;;;;13.67;87.23;99991.76;131024;1251;106812;-72
2023/09/20 05:57:50;;;;;;;12.60;8.70;;;;;;;13.79;87.22;99995.54;131007;1256;108718;-72
2023/09/20 06:00:56;;;;;;;12.30;8.80;;;;;;;13.90;87.24;99997.51;130975;1257;108430;-72
2023/09/20 06:04:03;;;;;;;10.20;8.50;;;;;;;14.02;87.19;99993.04;131022;1256;107734;-72
2023/09/20 06:07:09;;;;;;;12.10;8.40;;;;;;;14.13;87.54;99993.38;131046;1253;106610;-72
2023/09/20 06:10:17;;;;;;;9.00;7.70;;;;;;;14.21;87.77;99993.79;131019;1256;107055;-72
2023/09/20 06:13:22;;;;;;;10.10;7.90;;;;;;;14.33;87.88;99999.17;130959;1256;108482;-72
2023/09/20 06:16:28;;;;;;;10.20;7.90;;;;;;;14.44;87.86;99999.33;131008;1257;108428;-72
2023/09/20 06:19:33;;;;;;;9.90;7.90;;;;;;;14.54;87.89;100001.66;131034;1251;108373;-72
2023/09/20 06:22:39;;;;;;;8.30;7.10;;;;;;;14.63;87.93;100007.27;130977;1256;106540;-72
2023/09/20 06:25:47;;;;;;;18.00;7.00;;;;;;;14.71;87.73;100010.39;130971;1255;107125;-72
2023/09/20 06:28:53;;;;;;;8.80;7.20;;;;;;;14.81;87.96;100012.80;130990;1257;107710;-74
2023/09/20 06:31:59;;;;;;;9.00;6.80;;;;;;;14.91;87.84;100011.52;131130;1256;107441;-73
2023/09/20 06:35:07;;;;;;;9.10;7.10;;;;;;;15.03;87.97;100016.83;131078;1264;107488;-73
2023/09/20 06:38:13;;;;;;;11.00;6.20;;;;;;;15.12;88.05;100018.88;130963;1256;108557;-73
2023/09/20 06:41:20;;;;;;;12.00;7.40;;;;;;;15.21;87.75;100020.84;130961;1251;107588;-74
2023/09/20 06:44:26;;;;;;;8.40;6.10;;;;;;;15.29;87.72;100020.31;130953;1256;107057;-74
2023/09/20 06:47:32;;;;;;;7.50;6.00;;;;;;;15.39;87.87;100020.71;130915;1256;107957;-73
2023/09/20 06:50:38;;;;;;;6.40;5.70;;;;;;;15.49;87.74;100025.71;131090;1257;106680;-75
2023/09/20 06:53:44;;;;;;;8.70;5.90;;;;;;;15.59;87.75;100025.44;131163;1257;107733;-74
2023/09/20 06:56:50;;;;;;;7.40;5.30;;;;;;;15.66;87.54;100031.34;130958;1256;107861;-73
2023/09/20 06:59:57;;;;;;;6.00;4.70;;;;;;;15.73;87.45;100034.62;130990;1251;108539;-74
2023/09/20 07:03:03;;;;;;;7.10;5.10;;;;;;;15.82;87.43;100032.61;131066;1257;107703;-73
2023/09/20 07:06:09;;;;;;;6.00;4.40;;;;;;;15.93;87.27;100034.81;130983;1253;106614;-74
2023/09/20 07:09:15;;;;;;;5.70;4.50;;;;;;;16.04;87.04;100033.78;130990;1266;106614;-73
2023/09/20 07:12:21;;;;;;;5.90;4.10;;;;;;;16.14;86.75;100039.75;131012;1264;106615;-73
2023/09/20 07:15:28;;;;;;;5.10;3.90;;;;;;;16.23;86.43;100038.58;130966;1257;107435;-74
2023/09/20 07:18:34;;;;;;;5.30;3.60;;;;;;;16.32;86.30;100041.58;130928;1256;107973;-73
2023/09/20 07:21:40;;;;;;;4.60;3.70;;;;;;;16.41;85.83;100039.91;131010;1255;108598;-74
2023/09/20 07:24:47;;;;;;;5.70;3.90;;;;;;;16.51;85.52;100043.54;131008;1256;106603;-73
2023/09/20 07:27:55;;;;;;;5.00;3.70;;;;;;;16.61;84.95;100038.80;131037;1253;106397;-74
2023/09/20 07:31:03;;;;;;;5.00;3.30;;;;;;;16.69;84.59;100041.86;131031;1256;107789;-74
2023/09/20 07:34:12;;;;;;;4.20;3.30;;;;;;;16.78;84.37;100046.62;131202;1256;108595;-75
2023/09/20 07:37:18;;;;;;;6.50;3.40;;;;;;;16.86;84.22;100048.34;131039;1256;107750;-74
2023/09/20 07:40:26;;;;;;;3.40;2.80;;;;;;;16.94;84.35;100051.48;131022;1264;106895;-74
2023/09/20 07:43:36;;;;;;;3.80;2.80;;;;;;;17.01;83.85;100053.27;131015;1256;108685;-75
2023/09/20 07:46:42;;;;;;;6.20;3.10;;;;;;;17.07;83.26;100056.16;131110;1256;107130;-73
2023/09/20 07:49:50;;;;;;;4.80;3.00;;;;;;;17.17;82.68;100056.36;130976;1256;108069;-74
2023/09/20 07:52:56;;;;;;;4.90;3.10;;;;;;;17.28;82.34;100056.90;131002;1256;107705;-74
2023/09/20 07:56:03;;;;;;;6.50;3.10;;;;;;;17.36;81.56;100056.80;131048;1256;107650;-74
2023/09/20 07:59:12;;;;;;;7.20;2.80;;;;;;;17.44;81.81;100058.91;130849;1256;106704;-74
2023/09/20 08:02:18;;;;;;;5.80;2.80;;;;;;;17.52;80.66;100054.33;130968;1255;106003;-77
2023/09/20 08:05:25;;;;;;;4.60;2.80;;;;;;;17.60;81.19;100057.91;131013;1257;107059;-72
2023/09/20 08:08:30;;;;;;;4.40;2.70;;;;;;;17.64;80.28;100056.77;130994;1257;106536;-73
2023/09/20 08:11:37;;;;;;;4.90;2.50;;;;;;;17.69;80.31;100049.55;131011;1257;108119;-72
2023/09/20 08:14:42;;;;;;;3.90;2.50;;;;;;;17.76;80.07;100048.65;131044;1250;107779;-75
2023/09/20 08:21:11;;;;;;;3.40;2.50;;;;;;;17.88;79.07;100047.36;130984;1257;108707;-74
2023/09/20 09:01:59;;;;;;;4.40;2.20;;;;;;;18.82;74.77;100039.48;131066;1257;107615;-74
2023/09/20 09:05:08;;;;;;;6.30;2.40;;;;;;;18.89;74.86;100035.23;131033;1257;106854;-74
2023/09/20 09:08:14;;;;;;;4.20;2.00;;;;;;;18.96;74.40;100037.75;131014;1256;107039;-74
2023/09/20 09:11:20;;;;;;;3.90;2.20;;;;;;;19.01;74.38;100038.64;131037;1256;107982;-74
2023/09/20 09:14:25;;;;;;;4.20;2.10;;;;;;;19.07;73.33;100032.88;130983;1251;107944;-75
2023/09/20 09:17:38;;;;;;;4.10;1.80;;;;;;;19.14;73.79;100034.52;131027;1252;107286;-73
2023/09/20 09:20:45;;;;;;;5.70;2.10;;;;;;;19.19;72.46;100038.61;130972;1256;107777;-74
2023/09/20 09:23:52;;;;;;;3.30;1.90;;;;;;;19.23;71.74;100042.42;131221;1256;107719;-75
2023/09/20 09:27:08;;;;;;;3.60;1.90;;;;;;;19.27;72.02;100038.87;131087;1257;108162;-74
2023/09/20 09:30:15;;;;;;;2.60;1.90;;;;;;;19.33;71.79;100037.85;131156;1255;107613;-73
2023/09/20 09:33:21;;;;;;;3.90;2.20;;;;;;;19.39;69.74;100030.98;131094;1257;107632;-74
2023/09/20 09:36:27;;;;;;;3.50;2.20;;;;;;;19.49;69.66;100032.30;131039;1264;107180;-74
2023/09/20 09:39:33;;;;;;;2.30;2.00;;;;;;;19.58;70.21;100034.37;131167;1256;107774;-74
2023/09/20 09:42:41;;;;;;;3.30;2.00;;;;;;;19.67;69.79;100024.02;131055;1264;107208;-73
2023/09/20 09:45:49;;;;;;;4.20;2.20;;;;;;;19.75;69.86;100024.55;131020;1257;107143;-73
2023/09/20 09:48:55;;;;;;;4.80;2.20;;;;;;;19.85;70.24;100031.05;131080;1256;108010;-72
2023/09/20 09:52:01;;;;;;;4.00;2.00;;;;;;;19.96;70.23;100029.27;131094;1264;107755;-74
2023/09/20 09:55:09;;;;;;;4.60;2.10;;;;;;;20.07;69.66;100028.59;131017;1257;107792;-73
2023/09/20 09:58:14;;;;;;;3.90;1.90;;;;;;;20.16;69.50;100026.89;131105;1264;108564;-73
2023/09/20 10:01:23;;;;;;;3.80;1.80;;;;;;;20.27;69.13;100021.71;131052;1257;108500;-73
2023/09/20 10:04:30;;;;;;;3.40;1.90;;;;;;;20.35;68.04;100029.30;130997;1251;108540;-73
2023/09/20 10:07:42;;;;;;;2.20;1.70;;;;;;;20.39;65.68;100023.23;131188;1264;107940;-73
2023/09/20 10:10:47;;;;;;;4.20;1.60;;;;;;;20.45;66.45;100018.04;131205;1257;106517;-72
2023/09/20 10:13:55;;;;;;;2.80;1.70;;;;;;;20.53;66.42;100022.13;130991;1257;107790;-73
2023/09/20 10:17:06;;;;;;;3.30;1.70;;;;;;;20.62;66.64;100025.56;131045;1254;107778;-73
2023/09/20 10:20:15;;;;;;;2.80;1.70;;;;;;;20.70;66.13;100025.27;131006;1255;107556;-73
2023/09/20 10:23:21;;;;;;;3.60;1.80;;;;;;;20.76;65.24;100027.67;131064;1257;107873;-75
2023/09/20 10:26:29;;;;;;;4.50;1.80;;;;;;;20.80;65.51;100028.46;131066;1261;107435;-72
2023/09/20 10:29:35;;;;;;;3.80;1.80;;;;;;;20.83;64.84;100026.96;131062;1264;108563;-74
2023/09/20 10:32:54;;;;;;;3.50;1.70;;;;;;;20.90;65.19;100024.73;130985;1257;106665;-73
2023/09/20 10:36:00;;;;;;;2.30;1.50;;;;;;;20.94;65.08;100027.25;131094;1251;106605;-73
2023/09/20 10:39:23;;;;;;;3.40;1.70;;;;;;;21.01;65.06;100026.88;131037;1254;107147;-73
2023/09/20 10:42:29;;;;;;;2.70;1.60;;;;;;;21.09;63.99;100030.54;131052;1254;107879;-73
2023/09/20 10:45:37;;;;;;;2.50;1.40;;;;;;;21.15;62.64;100026.11;130985;1255;106934;-73
2023/09/20 10:48:50;;;;;;;3.90;1.70;;;;;;;21.24;63.60;100021.55;131012;1253;107674;-73
2023/09/20 10:51:56;;;;;;;2.80;1.30;;;;;;;21.33;63.89;100012.19;130987;1264;106638;-73
2023/09/20 10:55:32;;;;;;;2.60;1.40;;;;;;;21.41;63.54;100014.88;131093;1251;108547;-72
2023/09/20 10:58:42;;;;;;;3.20;1.40;;;;;;;21.44;62.67;100011.02;131023;1264;107005;-73
2023/09/20 11:02:01;;;;;;;1.70;1.40;;;;;;;21.49;63.07;100009.91;130977;1264;106753;-73
2023/09/20 11:05:11;;;;;;;4.60;1.70;;;;;;;21.49;62.99;100014.34;130942;1257;236817;-74
2023/09/20 11:08:17;;;;;;;4.80;1.60;;;;;;;21.43;62.79;100016.58;131043;1254;106715;-73
2023/09/20 11:11:23;;;;;;;2.60;1.40;;;;;;;21.33;62.28;100016.66;130994;1256;107985;-76
2023/09/20 11:14:29;;;;;;;3.40;1.40;;;;;;;21.27;62.65;100015.14;131059;1255;107940;-73
2023/09/20 11:17:35;;;;;;;3.40;1.60;;;;;;;21.26;62.59;100012.66;130989;1257;107821;-73
2023/09/20 11:20:42;;;;;;;1.80;1.40;;;;;;;21.27;62.52;100009.48;131019;1264;107420;-72
2023/09/20 11:23:49;;;;;;;2.40;1.70;;;;;;;21.30;62.38;100009.47;131025;1251;106780;-73
2023/09/20 11:26:57;;;;;;;2.80;1.70;;;;;;;21.33;62.33;100013.27;131092;1258;108633;-72
2023/09/20 11:30:08;;;;;;;2.60;1.40;;;;;;;21.37;62.41;100009.88;131041;1255;107822;-73
2023/09/20 11:33:28;;;;;;;2.10;1.50;;;;;;;21.42;62.11;100012.27;131126;1254;108453;-73
2023/09/20 11:36:39;;;;;;;2.50;1.50;;;;;;;21.41;61.48;100010.07;131001;1255;107088;-73
2023/09/20 11:39:46;;;;;;;2.60;1.30;;;;;;;21.42;61.01;100005.06;131082;1265;107407;-72
2023/09/20 11:42:55;;;;;;;3.00;1.40;;;;;;;21.48;61.63;100001.98;130999;1251;108085;-73
2023/09/20 11:46:00;;;;;;;4.10;2.00;;;;;;;21.50;61.13;100005.04;131019;1255;107484;-73
2023/09/20 11:49:08;;;;;;;2.30;1.50;;;;;;;21.54;61.28;100007.36;130945;1257;108024;-72
2023/09/20 11:52:17;;;;;;;2.60;1.50;;;;;;;21.56;60.69;100005.27;130987;1251;106749;-73
2023/09/20 11:55:23;;;;;;;3.90;1.50;;;;;;;21.60;61.18;99999.90;131043;1257;106793;-73
2023/09/20 11:58:34;;;;;;;2.40;1.60;;;;;;;21.63;61.04;99992.66;130982;1256;106776;-72
2023/09/20 12:01:43;;;;;;;2.90;1.40;;;;;;;21.69;60.58;99990.10;130857;1259;107128;-73
2023/09/20 12:04:51;;;;;;;2.30;1.50;;;;;;;21.75;60.46;99986.83;131116;1251;107597;-73
2023/09/20 12:07:59;;;;;;;3.00;1.70;;;;;;;21.83;60.79;99988.23;131030;1264;107548;-73
2023/09/20 12:11:05;;;;;;;2.50;1.80;;;;;;;21.89;60.55;99991.86;131032;1258;106549;-72
2023/09/20 12:14:13;;;;;;;2.90;1.50;;;;;;;21.93;60.47;99989.28;131023;1255;107729;-73
2023/09/20 12:17:19;;;;;;;4.20;2.00;;;;;;;21.97;60.31;99988.07;130975;1255;106579;-72
2023/09/20 12:20:25;;;;;;;3.00;1.90;;;;;;;21.97;60.20;99989.45;130928;1258;107802;-73
2023/09/20 12:23:31;;;;;;;5.30;1.90;;;;;;;21.97;60.04;99983.16;131038;1251;106870;-73
2023/09/20 12:26:37;;;;;;;3.20;1.80;;;;;;;22.02;60.27;99983.89;131115;1255;107622;-73
2023/09/20 12:29:43;;;;;;;2.50;1.70;;;;;;;22.09;60.14;99984.39;131001;1257;108720;-73
2023/09/20 12:32:49;;;;;;;3.00;1.70;;;;;;;22.11;59.74;99976.25;131048;1257;107896;-73
2023/09/20 12:35:55;;;;;;;2.20;1.60;;;;;;;22.12;57.81;99978.53;130982;1252;108137;-73
2023/09/20 12:39:04;;;;;;;2.60;1.70;;;;;;;22.14;59.33;99977.77;131148;1254;106880;-73
2023/09/20 12:42:10;;;;;;;3.50;1.60;;;;;;;22.20;59.73;99974.70;131113;1254;107216;-73
2023/09/20 12:45:16;;;;;;;3.50;1.90;;;;;;;22.25;59.55;99972.39;131090;1251;106724;-72
2023/09/20 12:48:22;;;;;;;3.70;1.90;;;;;;;22.29;59.24;99970.19;131051;1256;106472;-72
2023/09/20 12:51:27;;;;;;;3.60;1.60;;;;;;;22.33;59.47;99970.23;130985;1258;107686;-73
2023/09/20 12:54:34;;;;;;;3.30;1.60;;;;;;;22.40;59.33;99968.55;131088;1251;108215;-73
2023/09/20 12:57:40;;;;;;;2.50;1.60;;;;;;;22.47;58.92;99960.80;130990;1257;107949;-73
2023/09/20 13:00:49;;;;;;;2.60;1.70;;;;;;;22.51;59.16;99955.24;130905;1258;107789;-73
2023/09/20 13:03:55;;;;;;;2.80;1.60;;;;;;;22.50;58.60;99952.35;131030;1251;106863;-73
2023/09/20 13:07:01;;;;;;;2.90;1.80;;;;;;;22.47;59.03;99946.52;130967;1256;107137;-73
2023/09/20 13:10:13;;;;;;;3.00;1.50;;;;;;;22.43;58.77;99949.90;131042;1251;107700;-73
2023/09/20 13:13:19;;;;;;;4.60;1.70;;;;;;;22.37;58.71;99944.35;130971;1251;108657;-75
2023/09/20 13:16:25;;;;;;;2.70;1.40;;;;;;;22.33;58.73;99934.31;131008;1251;108654;-73
2023/09/20 13:19:31;;;;;;;2.10;1.50;;;;;;;22.35;58.99;99929.29;130970;1256;107105;-73
2023/09/20 13:22:37;;;;;;;1.90;1.40;;;;;;;22.40;58.81;99929.11;130985;1264;108697;-72
2023/09/20 13:25:43;;;;;;;2.60;1.60;;;;;;;22.40;58.55;99935.55;131084;1251;107471;-72
2023/09/20 13:28:49;;;;;;;2.90;1.60;;;;;;;22.42;58.42;99937.20;131017;1251;107886;-73
2023/09/20 13:31:55;;;;;;;3.30;1.50;;;;;;;22.45;58.36;99939.51;131014;1255;106945;-73
2023/09/20 13:35:02;;;;;;;2.90;1.70;;;;;;;22.47;58.22;99941.19;131197;1254;107215;-74
2023/09/20 13:38:08;;;;;;;2.30;1.40;;;;;;;22.47;57.99;99941.56;131100;1251;107025;-74
2023/09/20 13:41:13;;;;;;;2.50;1.70;;;;;;;22.43;58.07;99937.02;131197;1251;107113;-73
2023/09/20 13:44:19;;;;;;;1.70;1.30;;;;;;;22.43;58.15;99931.74;131025;1254;105690;-73
2023/09/20 13:47:25;;;;;;;3.40;1.60;;;;;;;22.44;58.33;99927.52;130958;1251;107561;-77
2023/09/20 13:50:32;;;;;;;2.50;1.40;;;;;;;22.44;57.95;99929.17;130963;1255;106786;-76
2023/09/20 13:53:37;;;;;;;3.00;1.40;;;;;;;22.43;57.97;99925.27;130955;1254;108379;-77
2023/09/20 13:56:44;;;;;;;3.00;1.60;;;;;;;22.43;57.96;99924.34;131168;1254;107529;-77
2023/09/20 13:59:51;;;;;;;2.30;1.70;;;;;;;22.40;58.00;99924.02;131021;1254;106846;-76
2023/09/20 14:03:01;;;;;;;2.40;1.40;;;;;;;22.35;57.82;99917.71;130996;1255;106838;-76
2023/09/20 14:06:08;;;;;;;3.30;1.60;;;;;;;22.32;57.67;99914.92;131054;1250;107528;-74
2023/09/20 14:09:17;;;;;;;2.30;1.50;;;;;;;22.29;57.86;99912.75;131514;1255;107421;-78
2023/09/20 14:12:26;;;;;;;2.30;1.40;;;;;;;22.27;57.59;99918.20;131373;1255;108595;-77
2023/09/20 14:15:31;;;;;;;2.20;1.40;;;;;;;22.27;57.58;99919.72;131544;1256;107305;-77
2023/09/20 14:18:37;;;;;;;1.90;1.40;;;;;;;22.26;57.55;99920.35;131059;1251;107449;-76
2023/09/20 14:21:43;;;;;;;4.00;1.50;;;;;;;22.26;57.39;99919.65;131494;1250;109324;-76
2023/09/20 14:24:50;;;;;;;2.80;1.90;;;;;;;22.25;57.45;99916.14;131747;1250;108197;-78
2023/09/20 14:27:56;;;;;;;3.90;2.30;;;;;;;22.21;57.07;99912.98;131282;1253;106809;-77
2023/09/20 14:31:03;;;;;;;2.50;1.90;;;;;;;22.14;57.06;99908.26;131213;1256;106802;-77
2023/09/20 14:34:10;;;;;;;2.00;1.50;;;;;;;22.08;57.04;99912.74;131150;1256;106582;-78
2023/09/20 14:37:16;;;;;;;2.90;1.70;;;;;;;22.04;57.14;99908.36;131021;1257;106889;-78
2023/09/20 14:40:22;;;;;;;3.40;1.70;;;;;;;22.02;57.18;99907.06;131268;1254;106762;-77
2023/09/20 14:43:29;;;;;;;2.50;2.00;;;;;;;21.99;57.31;99901.60;131174;1254;107136;-79
2023/09/20 14:46:35;;;;;;;3.00;1.90;;;;;;;21.96;57.23;99896.34;130996;1257;106723;-77
2023/09/20 14:49:41;;;;;;;2.90;1.70;;;;;;;21.93;57.11;99896.94;131106;1254;107982;-76
2023/09/20 14:52:48;;;;;;;2.50;2.00;;;;;;;21.91;57.37;99896.81;131021;1257;107660;-76
2023/09/20 14:55:54;;;;;;;2.40;1.90;;;;;;;21.85;57.37;99893.11;131081;1251;106652;-83
2023/09/20 14:59:03;;;;;;;2.30;1.80;;;;;;;21.78;57.09;99893.91;131003;1251;106725;-76